sensor_id;sensor_type;location;lat;lon;timestamp;P1;durP1;ratioP1;P2;durP2;ratioP2
51718;SDS011;37795;53.236;5.704;2022-07-22T00:01:23;4.47;;;1.45;;
51718;SDS011;37795;53.236;5.704;2022-07-22T00:03:50;4.47;;;1.73;;
51718;SDS011;37795;53.236;5.704;2022-07-22T00:06:16;8.25;;;2.05;;
51718;SDS011;37795;53.236;5.704;2022-07-22T00:08:42;3.83;;;1.87;;
51718;SDS011;37795;53.236;5.704;2022-07-22T00:11:08;2.78;;;1.85;;
51718;SDS011;37795;53.236;5.704;2022-07-22T00:13:34;4.40;;;2.35;;
51718;SDS011;37795;53.236;5.704;2022-07-22T00:16:00;6.05;;;1.83;;
51718;SDS011;37795;53.236;5.704;2022-07-22T00:18:26;6.20;;;2.55;;
51718;SDS011;37795;53.236;5.704;2022-07-22T00:20:53;5.50;;;2.17;;
51718;SDS011;37795;53.236;5.704;2022-07-22T00:23:19;9.00;;;2.20;;
51718;SDS011;37795;53.236;5.704;2022-07-22T00:25:45;4.57;;;1.90;;
51718;SDS011;37795;53.236;5.704;2022-07-22T00:28:11;7.28;;;2.28;;
51718;SDS011;37795;53.236;5.704;2022-07-22T00:30:37;4.67;;;1.97;;
51718;SDS011;37795;53.236;5.704;2022-07-22T00:33:04;5.88;;;1.70;;
51718;SDS011;37795;53.236;5.704;2022-07-22T00:35:30;4.40;;;1.90;;
51718;SDS011;37795;53.236;5.704;2022-07-22T00:37:56;4.22;;;1.95;;
51718;SDS011;37795;53.236;5.704;2022-07-22T00:40:22;5.15;;;2.20;;
51718;SDS011;37795;53.236;5.704;2022-07-22T00:42:48;5.20;;;2.67;;
51718;SDS011;37795;53.236;5.704;2022-07-22T00:45:15;5.25;;;2.00;;
51718;SDS011;37795;53.236;5.704;2022-07-22T00:47:41;3.47;;;2.20;;
51718;SDS011;37795;53.236;5.704;2022-07-22T00:50:07;6.15;;;2.03;;
51718;SDS011;37795;53.236;5.704;2022-07-22T00:52:34;6.07;;;2.65;;
51718;SDS011;37795;53.236;5.704;2022-07-22T00:55:00;4.80;;;2.72;;
51718;SDS011;37795;53.236;5.704;2022-07-22T00:57:27;7.38;;;2.42;;
51718;SDS011;37795;53.236;5.704;2022-07-22T00:59:53;8.83;;;3.00;;
51718;SDS011;37795;53.236;5.704;2022-07-22T01:02:19;8.65;;;2.70;;
51718;SDS011;37795;53.236;5.704;2022-07-22T01:04:45;6.53;;;2.63;;
51718;SDS011;37795;53.236;5.704;2022-07-22T01:07:11;5.78;;;2.17;;
51718;SDS011;37795;53.236;5.704;2022-07-22T01:09:41;6.65;;;2.70;;
51718;SDS011;37795;53.236;5.704;2022-07-22T01:12:08;9.27;;;2.37;;
51718;SDS011;37795;53.236;5.704;2022-07-22T01:14:34;4.72;;;2.13;;
51718;SDS011;37795;53.236;5.704;2022-07-22T01:17:00;4.22;;;2.05;;
51718;SDS011;37795;53.236;5.704;2022-07-22T01:19:26;3.80;;;1.90;;
51718;SDS011;37795;53.236;5.704;2022-07-22T01:21:52;4.03;;;2.25;;
51718;SDS011;37795;53.236;5.704;2022-07-22T01:24:18;2.88;;;1.85;;
51718;SDS011;37795;53.236;5.704;2022-07-22T01:26:44;3.42;;;1.80;;
51718;SDS011;37795;53.236;5.704;2022-07-22T01:29:10;3.63;;;1.95;;
51718;SDS011;37795;53.236;5.704;2022-07-22T01:31:36;3.08;;;1.70;;
51718;SDS011;37795;53.236;5.704;2022-07-22T01:34:02;3.53;;;2.07;;
51718;SDS011;37795;53.236;5.704;2022-07-22T01:36:28;4.03;;;2.20;;
51718;SDS011;37795;53.236;5.704;2022-07-22T01:38:55;4.05;;;2.45;;
51718;SDS011;37795;53.236;5.704;2022-07-22T01:41:22;3.90;;;2.35;;
51718;SDS011;37795;53.236;5.704;2022-07-22T01:43:48;4.80;;;2.30;;
51718;SDS011;37795;53.236;5.704;2022-07-22T01:46:14;3.58;;;2.30;;
51718;SDS011;37795;53.236;5.704;2022-07-22T01:48:41;4.32;;;2.28;;
51718;SDS011;37795;53.236;5.704;2022-07-22T01:51:08;4.55;;;2.13;;
51718;SDS011;37795;53.236;5.704;2022-07-22T01:53:34;3.00;;;2.03;;
51718;SDS011;37795;53.236;5.704;2022-07-22T01:56:00;4.40;;;2.10;;
51718;SDS011;37795;53.236;5.704;2022-07-22T01:58:26;4.35;;;2.40;;
51718;SDS011;37795;53.236;5.704;2022-07-22T02:00:52;3.83;;;1.90;;
51718;SDS011;37795;53.236;5.704;2022-07-22T02:03:18;5.90;;;2.08;;
51718;SDS011;37795;53.236;5.704;2022-07-22T02:05:44;4.30;;;1.80;;
51718;SDS011;37795;53.236;5.704;2022-07-22T02:08:10;6.45;;;2.30;;
51718;SDS011;37795;53.236;5.704;2022-07-22T02:10:37;2.95;;;2.05;;
51718;SDS011;37795;53.236;5.704;2022-07-22T02:13:03;4.45;;;1.95;;
51718;SDS011;37795;53.236;5.704;2022-07-22T02:15:30;4.90;;;1.73;;
51718;SDS011;37795;53.236;5.704;2022-07-22T02:17:56;3.33;;;1.70;;
51718;SDS011;37795;53.236;5.704;2022-07-22T02:20:22;4.45;;;1.80;;
51718;SDS011;37795;53.236;5.704;2022-07-22T02:22:48;7.03;;;1.98;;
51718;SDS011;37795;53.236;5.704;2022-07-22T02:25:14;5.70;;;1.50;;
51718;SDS011;37795;53.236;5.704;2022-07-22T02:27:41;3.00;;;1.33;;
51718;SDS011;37795;53.236;5.704;2022-07-22T02:30:07;4.95;;;1.70;;
51718;SDS011;37795;53.236;5.704;2022-07-22T02:32:34;5.35;;;2.20;;
51718;SDS011;37795;53.236;5.704;2022-07-22T02:35:00;4.13;;;1.70;;
51718;SDS011;37795;53.236;5.704;2022-07-22T02:37:26;5.60;;;2.40;;
51718;SDS011;37795;53.236;5.704;2022-07-22T02:39:52;4.75;;;1.90;;
51718;SDS011;37795;53.236;5.704;2022-07-22T02:42:18;3.20;;;1.50;;
51718;SDS011;37795;53.236;5.704;2022-07-22T02:44:44;2.03;;;1.57;;
51718;SDS011;37795;53.236;5.704;2022-07-22T02:47:11;4.65;;;1.90;;
51718;SDS011;37795;53.236;5.704;2022-07-22T02:49:37;3.22;;;2.33;;
51718;SDS011;37795;53.236;5.704;2022-07-22T02:52:03;5.28;;;1.67;;
51718;SDS011;37795;53.236;5.704;2022-07-22T02:54:29;3.92;;;1.95;;
51718;SDS011;37795;53.236;5.704;2022-07-22T02:56:55;2.33;;;1.70;;
51718;SDS011;37795;53.236;5.704;2022-07-22T02:59:21;4.18;;;1.95;;
51718;SDS011;37795;53.236;5.704;2022-07-22T03:01:47;4.75;;;2.55;;
51718;SDS011;37795;53.236;5.704;2022-07-22T03:04:13;5.65;;;2.22;;
51718;SDS011;37795;53.236;5.704;2022-07-22T03:06:39;6.87;;;2.07;;
51718;SDS011;37795;53.236;5.704;2022-07-22T03:09:05;4.90;;;2.05;;
51718;SDS011;37795;53.236;5.704;2022-07-22T03:11:31;8.00;;;2.27;;
51718;SDS011;37795;53.236;5.704;2022-07-22T03:13:57;6.07;;;2.38;;
51718;SDS011;37795;53.236;5.704;2022-07-22T03:16:23;11.23;;;2.67;;
51718;SDS011;37795;53.236;5.704;2022-07-22T03:18:49;5.95;;;2.13;;
51718;SDS011;37795;53.236;5.704;2022-07-22T03:21:16;5.32;;;1.70;;
51718;SDS011;37795;53.236;5.704;2022-07-22T03:23:42;5.90;;;2.40;;
51718;SDS011;37795;53.236;5.704;2022-07-22T03:26:08;4.10;;;2.17;;
51718;SDS011;37795;53.236;5.704;2022-07-22T03:28:34;3.70;;;1.63;;
51718;SDS011;37795;53.236;5.704;2022-07-22T03:31:00;4.30;;;1.60;;
51718;SDS011;37795;53.236;5.704;2022-07-22T03:33:26;4.63;;;1.93;;
51718;SDS011;37795;53.236;5.704;2022-07-22T03:35:52;4.60;;;1.85;;
51718;SDS011;37795;53.236;5.704;2022-07-22T03:38:18;6.88;;;2.08;;
51718;SDS011;37795;53.236;5.704;2022-07-22T03:40:44;4.13;;;1.65;;
51718;SDS011;37795;53.236;5.704;2022-07-22T03:43:10;6.75;;;2.45;;
51718;SDS011;37795;53.236;5.704;2022-07-22T03:45:36;2.67;;;1.33;;
51718;SDS011;37795;53.236;5.704;2022-07-22T03:48:03;2.20;;;1.90;;
51718;SDS011;37795;53.236;5.704;2022-07-22T03:50:29;2.58;;;1.13;;
51718;SDS011;37795;53.236;5.704;2022-07-22T03:52:55;5.82;;;1.95;;
51718;SDS011;37795;53.236;5.704;2022-07-22T03:55:21;3.35;;;1.65;;
51718;SDS011;37795;53.236;5.704;2022-07-22T03:57:47;3.90;;;1.90;;
51718;SDS011;37795;53.236;5.704;2022-07-22T04:00:13;5.13;;;1.73;;
51718;SDS011;37795;53.236;5.704;2022-07-22T04:02:39;6.55;;;1.88;;
51718;SDS011;37795;53.236;5.704;2022-07-22T04:05:05;5.38;;;1.83;;
51718;SDS011;37795;53.236;5.704;2022-07-22T04:07:31;5.72;;;1.85;;
51718;SDS011;37795;53.236;5.704;2022-07-22T04:09:58;5.07;;;2.00;;
51718;SDS011;37795;53.236;5.704;2022-07-22T04:12:37;2.53;;;1.60;;
51718;SDS011;37795;53.236;5.704;2022-07-22T04:15:04;5.03;;;1.80;;
51718;SDS011;37795;53.236;5.704;2022-07-22T04:17:30;4.15;;;1.98;;
51718;SDS011;37795;53.236;5.704;2022-07-22T04:19:57;6.15;;;1.98;;
51718;SDS011;37795;53.236;5.704;2022-07-22T04:22:24;3.97;;;2.00;;
51718;SDS011;37795;53.236;5.704;2022-07-22T04:24:50;3.78;;;1.50;;
51718;SDS011;37795;53.236;5.704;2022-07-22T04:27:16;5.65;;;2.00;;
51718;SDS011;37795;53.236;5.704;2022-07-22T04:29:42;4.13;;;1.83;;
51718;SDS011;37795;53.236;5.704;2022-07-22T04:32:08;4.17;;;1.80;;
51718;SDS011;37795;53.236;5.704;2022-07-22T04:34:34;5.53;;;2.15;;
51718;SDS011;37795;53.236;5.704;2022-07-22T04:37:00;4.10;;;1.90;;
51718;SDS011;37795;53.236;5.704;2022-07-22T04:39:26;5.78;;;2.00;;
51718;SDS011;37795;53.236;5.704;2022-07-22T04:41:52;3.63;;;1.98;;
51718;SDS011;37795;53.236;5.704;2022-07-22T04:44:18;3.25;;;1.90;;
51718;SDS011;37795;53.236;5.704;2022-07-22T04:46:44;5.32;;;1.73;;
51718;SDS011;37795;53.236;5.704;2022-07-22T04:49:10;4.22;;;1.80;;
51718;SDS011;37795;53.236;5.704;2022-07-22T04:51:36;4.30;;;1.60;;
51718;SDS011;37795;53.236;5.704;2022-07-22T04:54:03;5.20;;;2.15;;
51718;SDS011;37795;53.236;5.704;2022-07-22T04:56:29;5.63;;;2.25;;
51718;SDS011;37795;53.236;5.704;2022-07-22T04:58:55;4.93;;;2.00;;
51718;SDS011;37795;53.236;5.704;2022-07-22T05:01:21;4.60;;;1.75;;
51718;SDS011;37795;53.236;5.704;2022-07-22T05:03:47;3.05;;;1.70;;
51718;SDS011;37795;53.236;5.704;2022-07-22T05:06:13;5.65;;;1.73;;
51718;SDS011;37795;53.236;5.704;2022-07-22T05:08:39;5.72;;;2.00;;
51718;SDS011;37795;53.236;5.704;2022-07-22T05:11:06;7.90;;;2.03;;
51718;SDS011;37795;53.236;5.704;2022-07-22T05:13:32;8.45;;;2.25;;
51718;SDS011;37795;53.236;5.704;2022-07-22T05:16:02;6.43;;;1.80;;
51718;SDS011;37795;53.236;5.704;2022-07-22T05:18:29;4.85;;;1.90;;
51718;SDS011;37795;53.236;5.704;2022-07-22T05:20:55;4.53;;;2.10;;
51718;SDS011;37795;53.236;5.704;2022-07-22T05:23:21;7.03;;;2.25;;
51718;SDS011;37795;53.236;5.704;2022-07-22T05:25:47;6.93;;;2.13;;
51718;SDS011;37795;53.236;5.704;2022-07-22T05:28:13;6.90;;;2.00;;
51718;SDS011;37795;53.236;5.704;2022-07-22T05:30:39;5.28;;;2.13;;
51718;SDS011;37795;53.236;5.704;2022-07-22T05:33:05;4.27;;;2.23;;
51718;SDS011;37795;53.236;5.704;2022-07-22T05:35:31;6.55;;;2.08;;
51718;SDS011;37795;53.236;5.704;2022-07-22T05:37:57;4.33;;;1.87;;
51718;SDS011;37795;53.236;5.704;2022-07-22T05:40:23;4.05;;;1.90;;
51718;SDS011;37795;53.236;5.704;2022-07-22T05:42:49;7.77;;;2.17;;
51718;SDS011;37795;53.236;5.704;2022-07-22T05:45:15;5.47;;;1.88;;
51718;SDS011;37795;53.236;5.704;2022-07-22T05:47:42;3.07;;;1.77;;
51718;SDS011;37795;53.236;5.704;2022-07-22T05:50:08;3.55;;;1.55;;
51718;SDS011;37795;53.236;5.704;2022-07-22T05:52:37;3.63;;;1.70;;
51718;SDS011;37795;53.236;5.704;2022-07-22T05:55:04;6.90;;;1.75;;
51718;SDS011;37795;53.236;5.704;2022-07-22T05:57:30;4.57;;;1.67;;
51718;SDS011;37795;53.236;5.704;2022-07-22T05:59:56;2.78;;;1.38;;
51718;SDS011;37795;53.236;5.704;2022-07-22T06:02:22;4.10;;;1.25;;
51718;SDS011;37795;53.236;5.704;2022-07-22T06:04:48;3.65;;;1.40;;
51718;SDS011;37795;53.236;5.704;2022-07-22T06:07:14;5.57;;;1.40;;
51718;SDS011;37795;53.236;5.704;2022-07-22T06:09:40;3.70;;;1.55;;
51718;SDS011;37795;53.236;5.704;2022-07-22T06:12:06;4.35;;;1.67;;
51718;SDS011;37795;53.236;5.704;2022-07-22T06:14:33;5.18;;;1.45;;
51718;SDS011;37795;53.236;5.704;2022-07-22T06:16:59;3.20;;;1.52;;
51718;SDS011;37795;53.236;5.704;2022-07-22T06:19:25;3.63;;;1.55;;
51718;SDS011;37795;53.236;5.704;2022-07-22T06:21:51;6.95;;;1.58;;
51718;SDS011;37795;53.236;5.704;2022-07-22T06:24:17;5.63;;;1.75;;
51718;SDS011;37795;53.236;5.704;2022-07-22T06:26:43;1.92;;;1.40;;
51718;SDS011;37795;53.236;5.704;2022-07-22T06:29:09;4.50;;;1.70;;
51718;SDS011;37795;53.236;5.704;2022-07-22T06:31:35;4.85;;;1.50;;
51718;SDS011;37795;53.236;5.704;2022-07-22T06:34:01;4.28;;;1.52;;
51718;SDS011;37795;53.236;5.704;2022-07-22T06:36:33;6.03;;;1.73;;
51718;SDS011;37795;53.236;5.704;2022-07-22T06:38:59;3.13;;;1.38;;
51718;SDS011;37795;53.236;5.704;2022-07-22T06:41:25;3.05;;;1.55;;
51718;SDS011;37795;53.236;5.704;2022-07-22T06:43:51;2.80;;;1.48;;
51718;SDS011;37795;53.236;5.704;2022-07-22T06:46:18;4.07;;;1.30;;
51718;SDS011;37795;53.236;5.704;2022-07-22T06:52:10;4.20;;;1.65;;
51718;SDS011;37795;53.236;5.704;2022-07-22T06:54:36;3.30;;;1.45;;
51718;SDS011;37795;53.236;5.704;2022-07-22T06:57:02;7.18;;;1.77;;
51718;SDS011;37795;53.236;5.704;2022-07-22T06:59:28;3.55;;;1.70;;
51718;SDS011;37795;53.236;5.704;2022-07-22T07:01:54;3.00;;;1.40;;
51718;SDS011;37795;53.236;5.704;2022-07-22T07:04:20;3.03;;;1.58;;
51718;SDS011;37795;53.236;5.704;2022-07-22T07:06:46;3.88;;;1.50;;
51718;SDS011;37795;53.236;5.704;2022-07-22T07:09:12;4.10;;;1.73;;
51718;SDS011;37795;53.236;5.704;2022-07-22T07:11:38;4.93;;;1.30;;
51718;SDS011;37795;53.236;5.704;2022-07-22T07:14:04;2.67;;;1.20;;
51718;SDS011;37795;53.236;5.704;2022-07-22T07:16:31;5.65;;;1.50;;
51718;SDS011;37795;53.236;5.704;2022-07-22T07:18:57;3.22;;;1.67;;
51718;SDS011;37795;53.236;5.704;2022-07-22T07:21:23;7.03;;;1.38;;
51718;SDS011;37795;53.236;5.704;2022-07-22T07:23:49;5.88;;;1.27;;
51718;SDS011;37795;53.236;5.704;2022-07-22T07:26:15;3.97;;;1.15;;
51718;SDS011;37795;53.236;5.704;2022-07-22T07:28:41;1.00;;;0.88;;
51718;SDS011;37795;53.236;5.704;2022-07-22T07:31:07;1.27;;;0.95;;
51718;SDS011;37795;53.236;5.704;2022-07-22T07:33:34;2.42;;;1.08;;
51718;SDS011;37795;53.236;5.704;2022-07-22T07:36:00;2.35;;;1.20;;
51718;SDS011;37795;53.236;5.704;2022-07-22T07:38:26;0.95;;;0.77;;
51718;SDS011;37795;53.236;5.704;2022-07-22T07:40:52;1.70;;;0.88;;
51718;SDS011;37795;53.236;5.704;2022-07-22T07:43:18;2.10;;;1.13;;
51718;SDS011;37795;53.236;5.704;2022-07-22T07:45:45;2.40;;;0.90;;
51718;SDS011;37795;53.236;5.704;2022-07-22T07:48:11;2.10;;;1.10;;
51718;SDS011;37795;53.236;5.704;2022-07-22T07:50:38;2.38;;;1.10;;
51718;SDS011;37795;53.236;5.704;2022-07-22T07:53:04;5.00;;;1.33;;
51718;SDS011;37795;53.236;5.704;2022-07-22T07:55:30;3.73;;;1.00;;
51718;SDS011;37795;53.236;5.704;2022-07-22T07:57:57;2.63;;;1.40;;
51718;SDS011;37795;53.236;5.704;2022-07-22T08:00:24;2.67;;;1.15;;
51718;SDS011;37795;53.236;5.704;2022-07-22T08:02:55;4.18;;;1.20;;
51718;SDS011;37795;53.236;5.704;2022-07-22T08:05:21;2.10;;;0.90;;
51718;SDS011;37795;53.236;5.704;2022-07-22T08:07:48;2.40;;;0.90;;
51718;SDS011;37795;53.236;5.704;2022-07-22T08:10:15;1.40;;;0.88;;
51718;SDS011;37795;53.236;5.704;2022-07-22T08:12:41;1.58;;;0.93;;
51718;SDS011;37795;53.236;5.704;2022-07-22T08:15:07;1.80;;;0.93;;
51718;SDS011;37795;53.236;5.704;2022-07-22T08:17:35;0.85;;;0.65;;
51718;SDS011;37795;53.236;5.704;2022-07-22T08:20:02;1.90;;;1.00;;
51718;SDS011;37795;53.236;5.704;2022-07-22T08:22:28;3.63;;;1.45;;
51718;SDS011;37795;53.236;5.704;2022-07-22T08:24:54;3.05;;;1.27;;
51718;SDS011;37795;53.236;5.704;2022-07-22T08:27:20;1.85;;;1.15;;
51718;SDS011;37795;53.236;5.704;2022-07-22T08:29:46;1.45;;;0.95;;
51718;SDS011;37795;53.236;5.704;2022-07-22T08:32:12;3.23;;;1.10;;
51718;SDS011;37795;53.236;5.704;2022-07-22T08:34:38;2.10;;;0.95;;
51718;SDS011;37795;53.236;5.704;2022-07-22T08:37:04;2.88;;;1.15;;
51718;SDS011;37795;53.236;5.704;2022-07-22T08:39:30;1.67;;;1.00;;
51718;SDS011;37795;53.236;5.704;2022-07-22T08:41:56;1.38;;;0.93;;
51718;SDS011;37795;53.236;5.704;2022-07-22T08:44:22;3.35;;;0.98;;
51718;SDS011;37795;53.236;5.704;2022-07-22T08:46:49;1.45;;;0.90;;
51718;SDS011;37795;53.236;5.704;2022-07-22T08:49:15;1.05;;;0.90;;
51718;SDS011;37795;53.236;5.704;2022-07-22T08:51:42;1.33;;;0.90;;
51718;SDS011;37795;53.236;5.704;2022-07-22T08:54:08;4.50;;;1.30;;
51718;SDS011;37795;53.236;5.704;2022-07-22T08:56:34;2.67;;;1.13;;
51718;SDS011;37795;53.236;5.704;2022-07-22T08:59:03;1.90;;;1.10;;
51718;SDS011;37795;53.236;5.704;2022-07-22T09:01:29;2.13;;;1.00;;
51718;SDS011;37795;53.236;5.704;2022-07-22T09:03:55;3.67;;;1.17;;
51718;SDS011;37795;53.236;5.704;2022-07-22T09:06:25;1.52;;;0.98;;
51718;SDS011;37795;53.236;5.704;2022-07-22T09:08:53;2.63;;;1.10;;
51718;SDS011;37795;53.236;5.704;2022-07-22T09:11:20;1.70;;;0.90;;
51718;SDS011;37795;53.236;5.704;2022-07-22T09:13:46;3.90;;;0.98;;
51718;SDS011;37795;53.236;5.704;2022-07-22T09:16:13;1.45;;;0.70;;
51718;SDS011;37795;53.236;5.704;2022-07-22T09:21:11;1.05;;;0.77;;
51718;SDS011;37795;53.236;5.704;2022-07-22T09:23:39;4.45;;;0.90;;
51718;SDS011;37795;53.236;5.704;2022-07-22T09:26:06;2.20;;;0.95;;
51718;SDS011;37795;53.236;5.704;2022-07-22T09:28:32;1.55;;;1.00;;
51718;SDS011;37795;53.236;5.704;2022-07-22T09:30:58;2.50;;;1.00;;
51718;SDS011;37795;53.236;5.704;2022-07-22T09:33:24;2.97;;;0.85;;
51718;SDS011;37795;53.236;5.704;2022-07-22T09:35:51;2.22;;;1.13;;
51718;SDS011;37795;53.236;5.704;2022-07-22T09:38:18;0.93;;;0.70;;
51718;SDS011;37795;53.236;5.704;2022-07-22T09:40:45;3.35;;;1.20;;
51718;SDS011;37795;53.236;5.704;2022-07-22T09:43:18;4.18;;;1.42;;
51718;SDS011;37795;53.236;5.704;2022-07-22T09:45:46;2.30;;;1.10;;
51718;SDS011;37795;53.236;5.704;2022-07-22T09:48:13;2.43;;;1.03;;
51718;SDS011;37795;53.236;5.704;2022-07-22T09:50:40;1.00;;;0.70;;
51718;SDS011;37795;53.236;5.704;2022-07-22T09:53:06;1.30;;;0.80;;
51718;SDS011;37795;53.236;5.704;2022-07-22T09:55:32;0.75;;;0.68;;
51718;SDS011;37795;53.236;5.704;2022-07-22T09:57:58;2.00;;;1.05;;
51718;SDS011;37795;53.236;5.704;2022-07-22T10:00:25;3.13;;;1.13;;
51718;SDS011;37795;53.236;5.704;2022-07-22T10:02:56;1.70;;;1.20;;
51718;SDS011;37795;53.236;5.704;2022-07-22T10:05:23;1.83;;;1.07;;
51718;SDS011;37795;53.236;5.704;2022-07-22T10:07:50;0.93;;;0.80;;
51718;SDS011;37795;53.236;5.704;2022-07-22T10:10:18;3.03;;;0.95;;
51718;SDS011;37795;53.236;5.704;2022-07-22T10:12:45;2.28;;;1.10;;
51718;SDS011;37795;53.236;5.704;2022-07-22T10:15:13;2.03;;;0.80;;
51718;SDS011;37795;53.236;5.704;2022-07-22T10:17:41;4.00;;;1.10;;
51718;SDS011;37795;53.236;5.704;2022-07-22T10:20:07;1.83;;;0.98;;
51718;SDS011;37795;53.236;5.704;2022-07-22T10:25:11;0.95;;;0.80;;
51718;SDS011;37795;53.236;5.704;2022-07-22T10:27:44;2.42;;;0.90;;
51718;SDS011;37795;53.236;5.704;2022-07-22T10:30:10;2.33;;;1.20;;
51718;SDS011;37795;53.236;5.704;2022-07-22T10:32:36;1.88;;;0.90;;
51718;SDS011;37795;53.236;5.704;2022-07-22T10:40:10;3.50;;;0.93;;
51718;SDS011;37795;53.236;5.704;2022-07-22T10:45:26;1.53;;;0.90;;
51718;SDS011;37795;53.236;5.704;2022-07-22T10:52:11;3.28;;;1.00;;
51718;SDS011;37795;53.236;5.704;2022-07-22T10:57:30;3.95;;;1.30;;
51718;SDS011;37795;53.236;5.704;2022-07-22T10:59:56;2.53;;;1.17;;
51718;SDS011;37795;53.236;5.704;2022-07-22T11:02:23;2.33;;;1.13;;
51718;SDS011;37795;53.236;5.704;2022-07-22T11:04:49;1.92;;;0.88;;
51718;SDS011;37795;53.236;5.704;2022-07-22T11:07:15;2.13;;;1.13;;
51718;SDS011;37795;53.236;5.704;2022-07-22T11:09:41;3.70;;;1.45;;
51718;SDS011;37795;53.236;5.704;2022-07-22T11:12:12;6.70;;;1.60;;
51718;SDS011;37795;53.236;5.704;2022-07-22T11:14:38;3.33;;;1.25;;
51718;SDS011;37795;53.236;5.704;2022-07-22T11:19:30;3.13;;;1.23;;
51718;SDS011;37795;53.236;5.704;2022-07-22T11:22:12;3.80;;;1.10;;
51718;SDS011;37795;53.236;5.704;2022-07-22T11:24:40;4.13;;;1.40;;
51718;SDS011;37795;53.236;5.704;2022-07-22T11:27:13;5.22;;;1.75;;
51718;SDS011;37795;53.236;5.704;2022-07-22T11:29:40;4.93;;;1.52;;
51718;SDS011;37795;53.236;5.704;2022-07-22T11:32:12;6.03;;;1.42;;
51718;SDS011;37795;53.236;5.704;2022-07-22T11:34:40;2.93;;;1.10;;
51718;SDS011;37795;53.236;5.704;2022-07-22T11:37:19;1.50;;;1.20;;
51718;SDS011;37795;53.236;5.704;2022-07-22T11:39:48;4.72;;;1.40;;
51718;SDS011;37795;53.236;5.704;2022-07-22T11:42:14;4.53;;;1.38;;
51718;SDS011;37795;53.236;5.704;2022-07-22T11:44:40;2.40;;;1.30;;
51718;SDS011;37795;53.236;5.704;2022-07-22T11:47:07;2.90;;;1.20;;
51718;SDS011;37795;53.236;5.704;2022-07-22T11:49:34;1.88;;;1.10;;
51718;SDS011;37795;53.236;5.704;2022-07-22T11:52:02;3.30;;;1.33;;
51718;SDS011;37795;53.236;5.704;2022-07-22T11:54:28;5.28;;;1.30;;
51718;SDS011;37795;53.236;5.704;2022-07-22T11:56:54;2.00;;;1.27;;
51718;SDS011;37795;53.236;5.704;2022-07-22T11:59:21;4.90;;;1.10;;
51718;SDS011;37795;53.236;5.704;2022-07-22T12:01:49;4.22;;;1.40;;
51718;SDS011;37795;53.236;5.704;2022-07-22T12:04:19;5.90;;;1.35;;
51718;SDS011;37795;53.236;5.704;2022-07-22T12:06:46;4.18;;;1.38;;
51718;SDS011;37795;53.236;5.704;2022-07-22T12:09:13;2.10;;;1.30;;
51718;SDS011;37795;53.236;5.704;2022-07-22T12:11:41;1.98;;;1.30;;
51718;SDS011;37795;53.236;5.704;2022-07-22T12:14:08;3.70;;;1.65;;
51718;SDS011;37795;53.236;5.704;2022-07-22T12:16:35;1.10;;;0.90;;
51718;SDS011;37795;53.236;5.704;2022-07-22T12:19:03;3.03;;;1.30;;
51718;SDS011;37795;53.236;5.704;2022-07-22T12:21:30;3.08;;;1.40;;
51718;SDS011;37795;53.236;5.704;2022-07-22T12:29:17;3.03;;;1.35;;
51718;SDS011;37795;53.236;5.704;2022-07-22T12:34:13;3.40;;;1.20;;
51718;SDS011;37795;53.236;5.704;2022-07-22T12:36:42;2.45;;;1.60;;
51718;SDS011;37795;53.236;5.704;2022-07-22T12:39:16;3.58;;;2.15;;
51718;SDS011;37795;53.236;5.704;2022-07-22T12:41:52;2.47;;;1.30;;
51718;SDS011;37795;53.236;5.704;2022-07-22T12:44:25;3.92;;;1.13;;
51718;SDS011;37795;53.236;5.704;2022-07-22T12:46:53;3.50;;;1.40;;
51718;SDS011;37795;53.236;5.704;2022-07-22T12:49:22;1.40;;;1.25;;
51718;SDS011;37795;53.236;5.704;2022-07-22T12:52:04;4.38;;;1.63;;
51718;SDS011;37795;53.236;5.704;2022-07-22T12:54:31;3.00;;;1.35;;
51718;SDS011;37795;53.236;5.704;2022-07-22T12:56:57;2.78;;;1.30;;
51718;SDS011;37795;53.236;5.704;2022-07-22T12:59:24;3.53;;;1.45;;
51718;SDS011;37795;53.236;5.704;2022-07-22T13:01:50;3.88;;;1.60;;
51718;SDS011;37795;53.236;5.704;2022-07-22T13:04:16;3.30;;;1.48;;
51718;SDS011;37795;53.236;5.704;2022-07-22T13:06:42;1.98;;;0.90;;
51718;SDS011;37795;53.236;5.704;2022-07-22T13:09:08;6.47;;;1.40;;
51718;SDS011;37795;53.236;5.704;2022-07-22T13:11:34;4.00;;;1.40;;
51718;SDS011;37795;53.236;5.704;2022-07-22T13:14:05;3.60;;;1.23;;
51718;SDS011;37795;53.236;5.704;2022-07-22T13:16:32;3.42;;;1.42;;
51718;SDS011;37795;53.236;5.704;2022-07-22T13:18:58;2.22;;;1.05;;
51718;SDS011;37795;53.236;5.704;2022-07-22T13:21:24;2.70;;;1.20;;
51718;SDS011;37795;53.236;5.704;2022-07-22T13:23:50;1.63;;;1.20;;
51718;SDS011;37795;53.236;5.704;2022-07-22T13:26:16;3.10;;;1.10;;
51718;SDS011;37795;53.236;5.704;2022-07-22T13:28:42;3.22;;;1.38;;
51718;SDS011;37795;53.236;5.704;2022-07-22T13:31:08;2.05;;;1.10;;
51718;SDS011;37795;53.236;5.704;2022-07-22T13:33:35;2.92;;;1.27;;
51718;SDS011;37795;53.236;5.704;2022-07-22T13:36:01;1.60;;;1.10;;
51718;SDS011;37795;53.236;5.704;2022-07-22T13:38:27;1.25;;;0.85;;
51718;SDS011;37795;53.236;5.704;2022-07-22T13:40:53;2.45;;;1.25;;
51718;SDS011;37795;53.236;5.704;2022-07-22T13:43:20;3.10;;;1.37;;
51718;SDS011;37795;53.236;5.704;2022-07-22T13:45:48;3.25;;;1.30;;
51718;SDS011;37795;53.236;5.704;2022-07-22T13:48:14;2.00;;;1.27;;
51718;SDS011;37795;53.236;5.704;2022-07-22T13:50:42;1.65;;;1.20;;
51718;SDS011;37795;53.236;5.704;2022-07-22T13:53:08;3.23;;;1.10;;
51718;SDS011;37795;53.236;5.704;2022-07-22T13:55:34;2.67;;;1.15;;
51718;SDS011;37795;53.236;5.704;2022-07-22T13:58:00;4.87;;;1.60;;
51718;SDS011;37795;53.236;5.704;2022-07-22T14:00:26;1.10;;;1.00;;
51718;SDS011;37795;53.236;5.704;2022-07-22T14:02:52;3.63;;;1.40;;
51718;SDS011;37795;53.236;5.704;2022-07-22T14:05:18;2.55;;;1.52;;
51718;SDS011;37795;53.236;5.704;2022-07-22T14:07:45;2.80;;;1.60;;
51718;SDS011;37795;53.236;5.704;2022-07-22T14:10:11;2.75;;;1.20;;
51718;SDS011;37795;53.236;5.704;2022-07-22T14:12:38;2.05;;;1.23;;
51718;SDS011;37795;53.236;5.704;2022-07-22T14:15:04;4.32;;;1.27;;
51718;SDS011;37795;53.236;5.704;2022-07-22T14:17:32;2.00;;;1.40;;
51718;SDS011;37795;53.236;5.704;2022-07-22T14:19:58;2.67;;;1.20;;
51718;SDS011;37795;53.236;5.704;2022-07-22T14:22:24;1.53;;;1.03;;
51718;SDS011;37795;53.236;5.704;2022-07-22T14:24:51;2.80;;;1.48;;
51718;SDS011;37795;53.236;5.704;2022-07-22T14:27:17;3.08;;;1.25;;
51718;SDS011;37795;53.236;5.704;2022-07-22T14:29:43;4.57;;;1.47;;
51718;SDS011;37795;53.236;5.704;2022-07-22T14:32:09;3.28;;;1.40;;
51718;SDS011;37795;53.236;5.704;2022-07-22T14:34:35;4.90;;;1.80;;
51718;SDS011;37795;53.236;5.704;2022-07-22T14:37:01;3.03;;;1.58;;
51718;SDS011;37795;53.236;5.704;2022-07-22T14:39:27;2.70;;;1.30;;
51718;SDS011;37795;53.236;5.704;2022-07-22T14:41:53;2.83;;;1.27;;
51718;SDS011;37795;53.236;5.704;2022-07-22T14:44:19;3.72;;;1.80;;
51718;SDS011;37795;53.236;5.704;2022-07-22T14:46:45;2.88;;;1.23;;
51718;SDS011;37795;53.236;5.704;2022-07-22T14:49:12;4.65;;;1.45;;
51718;SDS011;37795;53.236;5.704;2022-07-22T14:51:38;4.20;;;1.10;;
51718;SDS011;37795;53.236;5.704;2022-07-22T14:54:04;1.52;;;1.13;;
51718;SDS011;37795;53.236;5.704;2022-07-22T14:56:33;3.45;;;1.25;;
51718;SDS011;37795;53.236;5.704;2022-07-22T14:58:59;3.88;;;1.05;;
51718;SDS011;37795;53.236;5.704;2022-07-22T15:01:27;3.60;;;1.10;;
51718;SDS011;37795;53.236;5.704;2022-07-22T15:03:53;3.70;;;1.33;;
51718;SDS011;37795;53.236;5.704;2022-07-22T15:06:19;1.52;;;1.00;;
51718;SDS011;37795;53.236;5.704;2022-07-22T15:08:46;6.93;;;1.40;;
51718;SDS011;37795;53.236;5.704;2022-07-22T15:11:12;2.67;;;1.20;;
51718;SDS011;37795;53.236;5.704;2022-07-22T15:13:38;3.05;;;1.25;;
51718;SDS011;37795;53.236;5.704;2022-07-22T15:16:04;3.83;;;1.38;;
51718;SDS011;37795;53.236;5.704;2022-07-22T15:18:30;4.10;;;1.23;;